createdAt,value
2023-05-16T00:01:19.772Z,8.95
2023-05-16T00:04:23.940Z,6.60
2023-05-16T00:07:26.847Z,6.03
2023-05-16T00:10:29.918Z,6.15
2023-05-16T00:13:32.681Z,6.65
2023-05-16T00:16:37.271Z,6.53
2023-05-16T00:19:42.352Z,8.70
2023-05-16T00:22:46.442Z,8.23
2023-05-16T00:25:49.727Z,6.85
2023-05-16T00:28:53.202Z,5.22
2023-05-16T00:31:56.204Z,5.15
2023-05-16T00:34:59.116Z,5.43
2023-05-16T00:38:01.835Z,5.00
2023-05-16T00:41:04.954Z,6.35
2023-05-16T00:44:07.685Z,6.12
2023-05-16T00:47:10.777Z,7.55
2023-05-16T00:50:14.118Z,5.85
2023-05-16T00:53:17.313Z,7.60
2023-05-16T00:56:21.747Z,5.18
2023-05-16T00:59:25.183Z,8.00
2023-05-16T01:06:03.269Z,7.85
2023-05-16T01:09:08.159Z,8.87
2023-05-16T01:12:19.833Z,7.60
2023-05-16T01:15:31.559Z,6.72
2023-05-16T01:18:44.486Z,10.02
2023-05-16T01:22:05.737Z,7.47
2023-05-16T01:25:30.235Z,5.00
2023-05-16T01:28:35.931Z,9.27
2023-05-16T01:31:38.784Z,5.18
2023-05-16T01:34:41.824Z,6.70
2023-05-16T01:38:21.506Z,5.90
2023-05-16T01:41:43.060Z,4.90
2023-05-16T01:45:24.791Z,7.18
2023-05-16T01:48:35.861Z,5.35
2023-05-16T01:51:41.819Z,6.87
2023-05-16T01:54:48.552Z,4.65
2023-05-16T01:57:53.644Z,5.90
2023-05-16T02:01:05.161Z,5.28
2023-05-16T02:04:08.310Z,8.57
2023-05-16T02:07:11.444Z,5.97
2023-05-16T02:10:14.918Z,8.35
2023-05-16T02:13:17.790Z,7.37
2023-05-16T02:16:21.358Z,6.20
2023-05-16T02:19:24.533Z,7.22
2023-05-16T02:22:27.146Z,6.87
2023-05-16T02:25:30.209Z,7.10
2023-05-16T02:28:32.858Z,7.37
2023-05-16T02:31:36.030Z,8.73
2023-05-16T02:34:38.694Z,6.65
2023-05-16T02:37:42.208Z,5.78
2023-05-16T02:40:44.849Z,5.80
2023-05-16T02:43:48.365Z,6.57
2023-05-16T02:46:51.448Z,4.87
2023-05-16T02:49:54.527Z,5.47
2023-05-16T02:52:59.927Z,9.00
2023-05-16T02:56:07.080Z,6.30
2023-05-16T02:59:09.913Z,6.57
2023-05-16T03:02:13.217Z,5.22
2023-05-16T03:05:16.041Z,7.72
2023-05-16T03:08:19.260Z,11.80
2023-05-16T03:11:26.319Z,8.10
2023-05-16T03:14:29.328Z,10.57
2023-05-16T03:17:32.075Z,9.82
2023-05-16T03:20:35.117Z,7.12
2023-05-16T03:23:37.692Z,7.15
2023-05-16T03:26:41.075Z,6.97
2023-05-16T03:29:43.613Z,5.03
2023-05-16T03:32:46.856Z,6.60
2023-05-16T03:35:49.540Z,6.43
2023-05-16T03:38:52.788Z,10.45
2023-05-16T03:41:57.478Z,20.15
2023-05-16T03:45:00.668Z,14.73
2023-05-16T03:48:03.403Z,14.75
2023-05-16T03:51:06.603Z,9.35
2023-05-16T03:54:09.241Z,6.75
2023-05-16T03:57:12.307Z,6.93
2023-05-16T04:00:15.511Z,9.70
2023-05-16T04:03:18.614Z,6.82
2023-05-16T04:06:21.955Z,8.68
2023-05-16T04:09:25.064Z,5.72
2023-05-16T04:12:27.867Z,13.98
2023-05-16T04:15:31.013Z,8.23
2023-05-16T04:18:33.874Z,12.20
2023-05-16T04:21:36.951Z,8.45
2023-05-16T04:24:39.552Z,8.75
2023-05-16T04:27:43.611Z,8.20
2023-05-16T04:30:46.768Z,6.90
2023-05-16T04:33:49.963Z,7.55
2023-05-16T04:36:52.625Z,5.80
2023-05-16T04:39:55.712Z,6.15
2023-05-16T04:42:58.426Z,7.85
2023-05-16T04:46:01.530Z,7.97
2023-05-16T04:49:04.298Z,7.68
2023-05-16T04:52:08.635Z,5.37
2023-05-16T04:55:11.553Z,5.47
2023-05-16T04:58:14.713Z,4.70
2023-05-16T05:01:17.503Z,5.30
2023-05-16T05:04:20.802Z,8.77
2023-05-16T05:07:23.579Z,5.25
2023-05-16T05:10:27.937Z,6.62
2023-05-16T05:13:30.841Z,9.88
2023-05-16T05:16:34.993Z,7.10
2023-05-16T05:19:37.809Z,7.00
2023-05-16T05:22:41.469Z,5.43
2023-05-16T05:25:44.156Z,4.95
2023-05-16T05:28:53.944Z,5.43
2023-05-16T05:32:00.198Z,5.30
2023-05-16T05:35:04.139Z,6.05
2023-05-16T05:38:06.816Z,5.32
2023-05-16T05:41:09.894Z,5.82
2023-05-16T05:44:12.688Z,6.65
2023-05-16T05:47:16.035Z,5.20
2023-05-16T05:50:18.932Z,6.25
2023-05-16T05:53:22.383Z,7.05
2023-05-16T05:56:25.098Z,7.68
2023-05-16T05:59:28.060Z,6.47
2023-05-16T06:02:31.108Z,6.77
2023-05-16T06:05:34.126Z,9.30
2023-05-16T06:08:37.020Z,8.40
2023-05-16T06:11:40.240Z,9.77
2023-05-16T06:14:42.966Z,9.25
2023-05-16T06:17:46.288Z,8.60
2023-05-16T06:20:49.196Z,8.15
2023-05-16T06:23:52.201Z,8.20
2023-05-16T06:26:54.952Z,9.30
2023-05-16T06:29:58.977Z,7.72
2023-05-16T06:33:01.690Z,8.83
2023-05-16T06:36:04.940Z,8.45
2023-05-16T06:39:07.746Z,13.68
2023-05-16T06:42:11.406Z,9.27
2023-05-16T06:45:14.105Z,7.03
2023-05-16T06:48:18.921Z,8.77
2023-05-16T06:51:21.698Z,7.90
2023-05-16T06:54:24.714Z,6.78
2023-05-16T06:57:27.384Z,7.07
2023-05-16T07:00:30.447Z,8.98
2023-05-16T07:03:33.367Z,8.07
2023-05-16T07:06:36.925Z,7.65
2023-05-16T07:09:39.590Z,7.25
2023-05-16T07:12:43.589Z,8.43
2023-05-16T07:15:46.517Z,6.05
2023-05-16T07:18:49.708Z,6.67
2023-05-16T07:21:52.537Z,5.47
2023-05-16T07:24:57.428Z,5.37
2023-05-16T07:28:01.228Z,5.37
2023-05-16T07:31:04.446Z,5.65
2023-05-16T07:34:07.741Z,5.10
2023-05-16T07:37:14.053Z,6.22
2023-05-16T07:40:18.467Z,4.60
2023-05-16T07:43:21.588Z,5.10
2023-05-16T07:46:24.495Z,9.93
2023-05-16T07:49:27.822Z,5.70
2023-05-16T07:52:30.524Z,6.47
2023-05-16T07:55:33.631Z,7.07
2023-05-16T07:58:36.724Z,6.25
2023-05-16T08:01:40.068Z,6.00
2023-05-16T08:04:43.159Z,5.47
2023-05-16T08:07:46.317Z,9.77
2023-05-16T08:10:49.451Z,6.82
2023-05-16T08:13:52.255Z,7.45
2023-05-16T08:16:55.479Z,5.40
2023-05-16T08:19:59.510Z,7.90
2023-05-16T08:23:02.586Z,7.72
2023-05-16T08:26:05.889Z,7.05
2023-05-16T08:29:09.074Z,7.15
2023-05-16T08:32:11.799Z,6.43
2023-05-16T08:35:14.821Z,11.37
2023-05-16T08:38:17.504Z,7.20
2023-05-16T08:41:22.150Z,7.12
2023-05-16T08:44:25.437Z,6.85
2023-05-16T08:47:32.137Z,7.82
2023-05-16T08:50:36.347Z,7.17
2023-05-16T08:53:44.910Z,7.55
2023-05-16T08:56:50.635Z,5.90
2023-05-16T08:59:55.603Z,7.25
2023-05-16T09:03:00.439Z,8.55
2023-05-16T09:06:07.361Z,7.53
2023-05-16T09:09:13.148Z,6.28
2023-05-16T09:12:16.527Z,6.20
2023-05-16T09:15:21.970Z,6.87
2023-05-16T09:18:25.640Z,6.45
2023-05-16T09:21:32.296Z,8.43
2023-05-16T09:24:38.932Z,6.93
2023-05-16T09:27:43.778Z,6.28
2023-05-16T09:30:47.569Z,5.22
2023-05-16T09:33:50.950Z,5.70
2023-05-16T09:36:57.288Z,7.10
2023-05-16T09:40:00.062Z,4.57
2023-05-16T09:43:05.930Z,8.30
2023-05-16T09:46:09.273Z,8.35
2023-05-16T09:49:14.179Z,6.72
2023-05-16T09:52:17.064Z,5.90
2023-05-16T09:55:20.168Z,6.43
2023-05-16T09:58:29.056Z,9.02
2023-05-16T10:01:32.669Z,9.52
2023-05-16T10:04:36.245Z,7.80
2023-05-16T10:07:40.505Z,10.67
2023-05-16T10:10:43.649Z,8.25
2023-05-16T10:13:53.405Z,9.32
2023-05-16T10:16:58.041Z,10.90
2023-05-16T10:20:08.459Z,7.37
2023-05-16T10:23:18.092Z,8.33
2023-05-16T10:26:22.737Z,6.90
2023-05-16T10:29:26.959Z,6.85
2023-05-16T10:32:30.329Z,6.82
2023-05-16T10:35:34.730Z,8.10
2023-05-16T10:38:39.337Z,8.20
2023-05-16T10:41:43.120Z,7.53
2023-05-16T10:44:54.483Z,7.03
2023-05-16T10:48:07.178Z,9.65
2023-05-16T10:51:36.974Z,9.18
2023-05-16T10:54:43.070Z,10.30
2023-05-16T10:57:46.375Z,12.37
2023-05-16T11:00:50.503Z,9.43
2023-05-16T11:04:02.772Z,10.43
2023-05-16T11:07:07.941Z,9.10
2023-05-16T11:10:17.174Z,10.53
2023-05-16T11:13:25.006Z,9.15
2023-05-16T11:16:32.036Z,9.18
2023-05-16T11:19:53.227Z,6.95
2023-05-16T11:23:28.211Z,8.60
2023-05-16T11:26:32.141Z,7.13
2023-05-16T11:29:36.348Z,7.37
2023-05-16T11:32:43.068Z,7.35
2023-05-16T11:36:14.595Z,6.50
2023-05-16T11:39:22.106Z,7.15
2023-05-16T11:42:24.894Z,10.13
2023-05-16T11:45:28.269Z,10.07
2023-05-16T11:48:36.294Z,18.42
2023-05-16T11:51:41.336Z,19.42
2023-05-16T11:54:44.087Z,11.68
2023-05-16T11:57:47.946Z,9.70
2023-05-16T12:00:51.699Z,10.65
2023-05-16T12:03:58.433Z,10.90
2023-05-16T12:07:02.235Z,12.60
2023-05-16T12:10:07.889Z,12.40
2023-05-16T12:13:11.300Z,11.50
2023-05-16T12:16:14.698Z,10.60
2023-05-16T12:19:17.709Z,11.40
2023-05-16T12:22:21.167Z,10.52
2023-05-16T12:25:42.267Z,14.85
2023-05-16T12:28:45.315Z,14.83
2023-05-16T12:31:48.133Z,13.57
2023-05-16T12:34:56.475Z,10.98
2023-05-16T12:38:00.473Z,12.48
2023-05-16T12:41:03.611Z,11.75
2023-05-16T12:44:17.903Z,12.10
2023-05-16T12:47:21.667Z,12.13
2023-05-16T12:50:27.171Z,12.73
2023-05-16T12:53:30.751Z,11.63
2023-05-16T12:56:33.549Z,12.75
2023-05-16T12:59:37.351Z,14.80
2023-05-16T13:02:41.337Z,14.05
2023-05-16T13:05:44.767Z,15.70
2023-05-16T13:08:47.517Z,11.60
2023-05-16T13:11:54.285Z,10.98
2023-05-16T13:14:58.027Z,11.70
2023-05-16T13:18:01.188Z,10.68
2023-05-16T13:21:05.134Z,10.13
2023-05-16T13:24:08.161Z,12.80
2023-05-16T13:27:10.941Z,11.45
2023-05-16T13:30:14.003Z,11.80
2023-05-16T13:33:16.938Z,11.68
2023-05-16T13:36:20.066Z,11.27
2023-05-16T13:39:23.179Z,13.75
2023-05-16T13:42:26.706Z,14.00
2023-05-16T13:45:29.949Z,13.53
2023-05-16T13:48:33.485Z,14.07
2023-05-16T13:51:36.209Z,10.00
2023-05-16T13:54:41.665Z,11.00
2023-05-16T13:57:44.686Z,9.63
2023-05-16T14:00:48.975Z,10.23
2023-05-16T14:03:52.388Z,10.95
2023-05-16T14:06:56.923Z,12.37
2023-05-16T14:09:59.990Z,12.10
2023-05-16T14:13:02.765Z,12.27
2023-05-16T14:16:06.473Z,14.07
2023-05-16T14:19:09.944Z,12.82
2023-05-16T14:22:13.602Z,13.90
2023-05-16T14:25:16.435Z,11.23
2023-05-16T14:28:19.817Z,11.45
2023-05-16T14:31:22.690Z,13.77
2023-05-16T14:34:26.108Z,12.52
2023-05-16T14:37:28.930Z,12.93
2023-05-16T14:40:32.618Z,13.23
2023-05-16T14:43:35.755Z,14.25
2023-05-16T14:46:42.131Z,17.73
2023-05-16T14:49:45.028Z,12.98
2023-05-16T14:52:48.120Z,13.57
2023-05-16T14:55:50.894Z,15.15
2023-05-16T14:58:54.450Z,13.82
2023-05-16T15:01:57.560Z,14.60
2023-05-16T15:05:00.836Z,13.32
2023-05-16T15:08:03.826Z,13.98
2023-05-16T15:11:06.938Z,15.82
2023-05-16T15:14:09.674Z,13.85
2023-05-16T15:17:12.840Z,14.37
2023-05-16T15:20:15.962Z,13.02
2023-05-16T15:23:19.184Z,13.23
2023-05-16T15:26:23.052Z,12.32
2023-05-16T15:29:26.515Z,13.55
2023-05-16T15:32:29.371Z,9.70
2023-05-16T15:35:32.755Z,9.70
2023-05-16T15:38:36.639Z,12.80
2023-05-16T15:42:05.181Z,12.18
2023-05-16T15:45:03.422Z,12.45
2023-05-16T15:48:06.854Z,16.13
2023-05-16T15:51:09.764Z,13.65
2023-05-16T15:54:13.077Z,11.32
2023-05-16T15:57:15.876Z,13.13
2023-05-16T16:00:19.437Z,12.85
2023-05-16T16:03:22.846Z,13.73
2023-05-16T16:06:25.780Z,12.13
2023-05-16T16:09:28.899Z,13.68
2023-05-16T16:12:31.940Z,12.35
2023-05-16T16:15:36.078Z,14.98
2023-05-16T16:18:39.215Z,12.87
2023-05-16T16:21:42.354Z,13.93
2023-05-16T16:24:45.138Z,13.62
2023-05-16T16:27:48.656Z,15.65
2023-05-16T16:30:51.438Z,13.98
2023-05-16T16:33:55.078Z,16.03
2023-05-16T16:36:57.768Z,16.27
2023-05-16T16:40:01.309Z,18.12
2023-05-16T16:43:07.122Z,12.55
2023-05-16T16:46:10.220Z,15.18
2023-05-16T16:49:13.655Z,13.87
2023-05-16T16:52:16.670Z,12.73
2023-05-16T16:55:19.771Z,10.77
2023-05-16T16:58:22.850Z,12.88
2023-05-16T17:01:28.202Z,9.40
2023-05-16T17:04:35.170Z,10.40
2023-05-16T17:07:38.000Z,8.50
2023-05-16T17:10:41.137Z,11.43
2023-05-16T17:13:44.746Z,12.23
2023-05-16T17:16:47.871Z,13.62
2023-05-16T17:19:50.874Z,12.70
2023-05-16T17:22:54.253Z,11.90
2023-05-16T17:25:57.408Z,13.27
2023-05-16T17:29:00.804Z,11.68
2023-05-16T17:32:03.742Z,12.52
2023-05-16T17:35:07.642Z,11.07
2023-05-16T17:38:11.532Z,12.10
2023-05-16T17:41:15.351Z,9.80
2023-05-16T17:44:18.897Z,11.80
2023-05-16T17:47:22.325Z,10.52
2023-05-16T17:50:26.099Z,15.70
2023-05-16T17:53:29.926Z,12.23
2023-05-16T17:56:32.919Z,15.45
2023-05-16T17:59:37.370Z,12.70
2023-05-16T18:02:40.578Z,13.27
2023-05-16T18:05:44.357Z,13.90
2023-05-16T18:08:47.514Z,25.65
2023-05-16T18:11:50.593Z,20.45
2023-05-16T18:14:53.474Z,15.48
2023-05-16T18:17:57.040Z,15.80
2023-05-16T18:20:59.991Z,10.63
2023-05-16T18:24:03.264Z,10.73
2023-05-16T18:27:07.577Z,11.95
2023-05-16T18:30:13.249Z,12.23
2023-05-16T18:33:17.104Z,14.02
2023-05-16T18:36:20.855Z,13.47
2023-05-16T18:39:24.207Z,13.60
2023-05-16T18:42:27.995Z,11.48
2023-05-16T18:45:31.762Z,11.32
2023-05-16T18:48:36.309Z,14.98
2023-05-16T18:51:40.509Z,13.37
2023-05-16T18:54:43.993Z,9.63
2023-05-16T18:57:47.911Z,9.27
2023-05-16T19:00:52.810Z,9.07
2023-05-16T19:03:58.213Z,8.48
2023-05-16T19:07:04.151Z,7.97
2023-05-16T19:10:08.699Z,9.15
2023-05-16T19:13:12.237Z,11.63
2023-05-16T19:16:15.646Z,10.70
2023-05-16T19:19:20.729Z,12.20
2023-05-16T19:22:24.239Z,9.60
2023-05-16T19:25:31.520Z,8.85
2023-05-16T19:28:35.177Z,10.38
2023-05-16T19:31:40.080Z,9.50
2023-05-16T19:34:43.922Z,13.90
2023-05-16T19:37:47.156Z,11.70
2023-05-16T19:40:50.506Z,11.60
2023-05-16T19:43:53.774Z,11.38
2023-05-16T19:46:56.566Z,13.33
2023-05-16T19:49:59.609Z,14.27
2023-05-16T19:53:02.959Z,15.85
2023-05-16T19:56:06.854Z,13.05
2023-05-16T19:59:09.646Z,13.68
2023-05-16T20:02:12.850Z,12.20
2023-05-16T20:05:20.192Z,12.77
2023-05-16T20:08:23.454Z,13.68
2023-05-16T20:11:26.789Z,13.48
2023-05-16T20:14:29.975Z,19.17
2023-05-16T20:17:33.515Z,15.30
2023-05-16T20:20:36.402Z,16.77
2023-05-16T20:23:41.262Z,14.80
2023-05-16T20:26:44.157Z,16.08
2023-05-16T20:29:49.605Z,12.93
2023-05-16T20:32:52.422Z,12.63
2023-05-16T20:35:55.677Z,14.90
2023-05-16T20:38:58.401Z,12.98
2023-05-16T20:42:01.477Z,13.32
2023-05-16T20:45:04.951Z,12.98
2023-05-16T20:48:08.582Z,14.37
2023-05-16T20:51:11.528Z,14.60
2023-05-16T20:54:14.550Z,13.88
2023-05-16T20:57:17.961Z,11.73
2023-05-16T21:00:21.242Z,12.48
2023-05-16T21:03:24.047Z,10.90
2023-05-16T21:06:27.095Z,10.57
2023-05-16T21:09:29.806Z,12.75
2023-05-16T21:12:32.841Z,13.18
2023-05-16T21:15:35.661Z,14.63
2023-05-16T21:18:39.304Z,12.80
2023-05-16T21:21:42.647Z,14.60
2023-05-16T21:24:45.611Z,14.60
2023-05-16T21:27:48.375Z,13.35
2023-05-16T21:30:51.495Z,18.98
2023-05-16T21:33:54.651Z,16.43
2023-05-16T21:36:58.854Z,17.37
2023-05-16T21:40:02.027Z,15.13
2023-05-16T21:43:05.563Z,14.68
2023-05-16T21:46:08.243Z,14.63
2023-05-16T21:49:11.838Z,18.10
2023-05-16T21:52:14.661Z,17.67
2023-05-16T21:55:17.894Z,13.20
2023-05-16T21:58:20.822Z,13.45
2023-05-16T22:01:28.320Z,17.30
2023-05-16T22:04:31.776Z,13.80
2023-05-16T22:07:34.583Z,13.33
2023-05-16T22:10:37.809Z,11.93
2023-05-16T22:13:40.584Z,13.15
2023-05-16T22:16:43.610Z,13.85
2023-05-16T22:19:47.306Z,12.43
2023-05-16T22:22:51.061Z,11.27
2023-05-16T22:25:54.356Z,18.40
2023-05-16T22:28:57.679Z,15.32
2023-05-16T22:32:00.448Z,17.20
2023-05-16T22:35:03.652Z,12.37
2023-05-16T22:38:06.414Z,12.23
2023-05-16T22:41:09.538Z,12.23
2023-05-16T22:44:12.262Z,14.13
2023-05-16T22:47:15.428Z,17.08
2023-05-16T22:50:18.193Z,16.17
2023-05-16T22:53:21.505Z,15.90
2023-05-16T22:56:24.265Z,16.50
2023-05-16T22:59:27.399Z,16.02
2023-05-16T23:02:30.302Z,20.27
2023-05-16T23:05:33.463Z,14.33
2023-05-16T23:08:36.307Z,16.93
2023-05-16T23:11:39.516Z,14.82
2023-05-16T23:14:42.555Z,15.45
2023-05-16T23:17:46.336Z,15.95
2023-05-16T23:20:49.112Z,17.73
2023-05-16T23:23:52.178Z,20.73
2023-05-16T23:26:54.930Z,17.10
2023-05-16T23:29:58.417Z,13.93
2023-05-16T23:33:01.524Z,15.95
2023-05-16T23:36:05.035Z,13.07
2023-05-16T23:39:08.477Z,14.57
2023-05-16T23:42:11.648Z,15.40
2023-05-16T23:45:14.354Z,14.20
2023-05-16T23:48:17.539Z,14.75
2023-05-16T23:51:21.861Z,16.50
2023-05-16T23:54:25.676Z,14.10
2023-05-16T23:57:28.303Z,15.52
